sensor_id;sensor_type;location;lat;lon;timestamp;P1;durP1;ratioP1;P2;durP2;ratioP2
34134;SDS011;20410;55.578;12.968;2023-03-15T00:00:21;15.63;;;3.50;;
34134;SDS011;20410;55.578;12.968;2023-03-15T00:02:47;13.67;;;3.87;;
34134;SDS011;20410;55.578;12.968;2023-03-15T00:05:13;11.80;;;3.37;;
34134;SDS011;20410;55.578;12.968;2023-03-15T00:07:38;13.53;;;3.67;;
34134;SDS011;20410;55.578;12.968;2023-03-15T00:10:05;13.33;;;3.33;;
34134;SDS011;20410;55.578;12.968;2023-03-15T00:12:31;8.50;;;2.80;;
34134;SDS011;20410;55.578;12.968;2023-03-15T00:14:58;10.20;;;3.60;;
34134;SDS011;20410;55.578;12.968;2023-03-15T00:17:24;8.93;;;2.83;;
34134;SDS011;20410;55.578;12.968;2023-03-15T00:19:50;8.30;;;3.10;;
34134;SDS011;20410;55.578;12.968;2023-03-15T00:22:15;11.87;;;3.70;;
34134;SDS011;20410;55.578;12.968;2023-03-15T00:24:41;7.77;;;2.90;;
34134;SDS011;20410;55.578;12.968;2023-03-15T00:27:07;8.13;;;3.17;;
34134;SDS011;20410;55.578;12.968;2023-03-15T00:29:33;10.37;;;3.67;;
34134;SDS011;20410;55.578;12.968;2023-03-15T00:31:59;8.97;;;3.27;;
34134;SDS011;20410;55.578;12.968;2023-03-15T00:34:24;6.47;;;3.03;;
34134;SDS011;20410;55.578;12.968;2023-03-15T00:36:50;11.10;;;3.23;;
34134;SDS011;20410;55.578;12.968;2023-03-15T00:39:21;8.20;;;3.10;;
34134;SDS011;20410;55.578;12.968;2023-03-15T00:41:49;11.73;;;3.77;;
34134;SDS011;20410;55.578;12.968;2023-03-15T00:44:15;8.87;;;3.00;;
34134;SDS011;20410;55.578;12.968;2023-03-15T00:46:41;8.53;;;3.17;;
34134;SDS011;20410;55.578;12.968;2023-03-15T00:49:07;11.47;;;3.20;;
34134;SDS011;20410;55.578;12.968;2023-03-15T00:51:32;10.67;;;3.23;;
34134;SDS011;20410;55.578;12.968;2023-03-15T00:53:58;8.47;;;3.27;;
34134;SDS011;20410;55.578;12.968;2023-03-15T00:56:25;10.03;;;3.73;;
34134;SDS011;20410;55.578;12.968;2023-03-15T00:58:51;13.10;;;3.53;;
34134;SDS011;20410;55.578;12.968;2023-03-15T01:01:18;10.30;;;3.67;;
34134;SDS011;20410;55.578;12.968;2023-03-15T01:03:49;10.23;;;3.37;;
34134;SDS011;20410;55.578;12.968;2023-03-15T01:06:22;10.70;;;3.10;;
34134;SDS011;20410;55.578;12.968;2023-03-15T01:08:49;11.10;;;3.43;;
34134;SDS011;20410;55.578;12.968;2023-03-15T01:11:17;13.70;;;4.03;;
34134;SDS011;20410;55.578;12.968;2023-03-15T01:13:45;17.37;;;3.57;;
34134;SDS011;20410;55.578;12.968;2023-03-15T01:16:11;11.90;;;3.53;;
34134;SDS011;20410;55.578;12.968;2023-03-15T01:18:38;9.80;;;3.63;;
34134;SDS011;20410;55.578;12.968;2023-03-15T01:21:05;16.67;;;3.60;;
34134;SDS011;20410;55.578;12.968;2023-03-15T01:23:32;8.80;;;3.43;;
34134;SDS011;20410;55.578;12.968;2023-03-15T01:26:01;10.57;;;3.57;;
34134;SDS011;20410;55.578;12.968;2023-03-15T01:28:27;12.40;;;3.10;;
34134;SDS011;20410;55.578;12.968;2023-03-15T01:30:53;14.30;;;3.83;;
34134;SDS011;20410;55.578;12.968;2023-03-15T01:33:19;14.33;;;3.90;;
34134;SDS011;20410;55.578;12.968;2023-03-15T01:35:46;17.13;;;3.87;;
34134;SDS011;20410;55.578;12.968;2023-03-15T01:38:11;14.07;;;4.30;;
34134;SDS011;20410;55.578;12.968;2023-03-15T01:40:41;20.80;;;4.00;;
34134;SDS011;20410;55.578;12.968;2023-03-15T01:43:16;13.10;;;3.73;;
34134;SDS011;20410;55.578;12.968;2023-03-15T01:48:43;16.80;;;4.10;;
34134;SDS011;20410;55.578;12.968;2023-03-15T01:54:08;12.97;;;3.63;;
34134;SDS011;20410;55.578;12.968;2023-03-15T01:56:35;24.30;;;4.87;;
34134;SDS011;20410;55.578;12.968;2023-03-15T01:59:04;14.93;;;3.70;;
34134;SDS011;20410;55.578;12.968;2023-03-15T02:01:35;18.33;;;3.80;;
34134;SDS011;20410;55.578;12.968;2023-03-15T02:04:09;14.63;;;4.17;;
34134;SDS011;20410;55.578;12.968;2023-03-15T02:06:38;21.00;;;4.77;;
34134;SDS011;20410;55.578;12.968;2023-03-15T02:09:05;18.40;;;4.33;;
34134;SDS011;20410;55.578;12.968;2023-03-15T02:11:34;14.77;;;3.80;;
34134;SDS011;20410;55.578;12.968;2023-03-15T02:14:01;19.27;;;4.37;;
34134;SDS011;20410;55.578;12.968;2023-03-15T02:16:27;14.57;;;4.07;;
34134;SDS011;20410;55.578;12.968;2023-03-15T02:18:54;17.93;;;4.20;;
34134;SDS011;20410;55.578;12.968;2023-03-15T02:26:41;14.30;;;3.60;;
34134;SDS011;20410;55.578;12.968;2023-03-15T02:29:10;15.67;;;4.50;;
34134;SDS011;20410;55.578;12.968;2023-03-15T02:31:36;14.00;;;3.73;;
34134;SDS011;20410;55.578;12.968;2023-03-15T02:34:04;15.00;;;3.87;;
34134;SDS011;20410;55.578;12.968;2023-03-15T02:36:31;16.23;;;3.27;;
34134;SDS011;20410;55.578;12.968;2023-03-15T02:38:57;19.03;;;5.03;;
34134;SDS011;20410;55.578;12.968;2023-03-15T02:41:31;16.87;;;4.00;;
34134;SDS011;20410;55.578;12.968;2023-03-15T02:44:05;12.40;;;3.87;;
34134;SDS011;20410;55.578;12.968;2023-03-15T02:46:35;16.67;;;3.90;;
34134;SDS011;20410;55.578;12.968;2023-03-15T02:49:01;16.53;;;4.00;;
34134;SDS011;20410;55.578;12.968;2023-03-15T02:51:28;15.87;;;4.10;;
34134;SDS011;20410;55.578;12.968;2023-03-15T02:53:56;18.60;;;4.10;;
34134;SDS011;20410;55.578;12.968;2023-03-15T02:56:22;13.57;;;3.80;;
34134;SDS011;20410;55.578;12.968;2023-03-15T02:58:48;17.97;;;4.77;;
34134;SDS011;20410;55.578;12.968;2023-03-15T03:01:15;18.47;;;4.37;;
34134;SDS011;20410;55.578;12.968;2023-03-15T03:03:42;19.90;;;4.10;;
34134;SDS011;20410;55.578;12.968;2023-03-15T03:06:09;14.87;;;4.43;;
34134;SDS011;20410;55.578;12.968;2023-03-15T03:08:36;13.57;;;3.73;;
34134;SDS011;20410;55.578;12.968;2023-03-15T03:11:02;14.13;;;4.00;;
34134;SDS011;20410;55.578;12.968;2023-03-15T03:13:29;11.93;;;3.80;;
34134;SDS011;20410;55.578;12.968;2023-03-15T03:15:54;13.50;;;3.80;;
34134;SDS011;20410;55.578;12.968;2023-03-15T03:18:23;12.83;;;4.20;;
34134;SDS011;20410;55.578;12.968;2023-03-15T03:20:49;16.77;;;4.90;;
34134;SDS011;20410;55.578;12.968;2023-03-15T03:23:16;11.53;;;3.77;;
34134;SDS011;20410;55.578;12.968;2023-03-15T03:25:42;17.10;;;4.30;;
34134;SDS011;20410;55.578;12.968;2023-03-15T03:28:09;17.17;;;4.17;;
34134;SDS011;20410;55.578;12.968;2023-03-15T03:30:35;17.17;;;4.20;;
34134;SDS011;20410;55.578;12.968;2023-03-15T03:33:00;12.90;;;3.87;;
34134;SDS011;20410;55.578;12.968;2023-03-15T03:35:26;21.57;;;3.80;;
34134;SDS011;20410;55.578;12.968;2023-03-15T03:37:52;13.93;;;4.63;;
34134;SDS011;20410;55.578;12.968;2023-03-15T03:40:17;15.63;;;3.73;;
34134;SDS011;20410;55.578;12.968;2023-03-15T03:42:43;11.73;;;3.40;;
34134;SDS011;20410;55.578;12.968;2023-03-15T03:45:09;18.57;;;4.67;;
34134;SDS011;20410;55.578;12.968;2023-03-15T03:47:35;10.23;;;3.23;;
34134;SDS011;20410;55.578;12.968;2023-03-15T03:50:00;13.87;;;4.13;;
34134;SDS011;20410;55.578;12.968;2023-03-15T03:52:26;9.87;;;3.70;;
34134;SDS011;20410;55.578;12.968;2023-03-15T03:54:52;15.83;;;4.30;;
34134;SDS011;20410;55.578;12.968;2023-03-15T03:57:17;18.80;;;4.23;;
34134;SDS011;20410;55.578;12.968;2023-03-15T03:59:43;10.60;;;3.90;;
34134;SDS011;20410;55.578;12.968;2023-03-15T04:02:08;13.40;;;3.90;;
34134;SDS011;20410;55.578;12.968;2023-03-15T04:04:34;12.63;;;4.27;;
34134;SDS011;20410;55.578;12.968;2023-03-15T04:07:00;16.57;;;3.83;;
34134;SDS011;20410;55.578;12.968;2023-03-15T04:09:25;12.80;;;3.70;;
34134;SDS011;20410;55.578;12.968;2023-03-15T04:11:51;16.40;;;3.63;;
34134;SDS011;20410;55.578;12.968;2023-03-15T04:14:17;14.80;;;4.20;;
34134;SDS011;20410;55.578;12.968;2023-03-15T04:16:42;20.17;;;4.53;;
34134;SDS011;20410;55.578;12.968;2023-03-15T04:19:08;14.27;;;3.80;;
34134;SDS011;20410;55.578;12.968;2023-03-15T04:21:34;17.87;;;3.90;;
34134;SDS011;20410;55.578;12.968;2023-03-15T04:24:01;12.27;;;3.70;;
34134;SDS011;20410;55.578;12.968;2023-03-15T04:26:27;18.83;;;3.93;;
34134;SDS011;20410;55.578;12.968;2023-03-15T04:28:53;11.63;;;3.43;;
34134;SDS011;20410;55.578;12.968;2023-03-15T04:31:20;11.80;;;3.90;;
34134;SDS011;20410;55.578;12.968;2023-03-15T04:33:51;17.23;;;4.40;;
34134;SDS011;20410;55.578;12.968;2023-03-15T04:36:21;10.37;;;3.57;;
34134;SDS011;20410;55.578;12.968;2023-03-15T04:38:47;10.83;;;3.83;;
34134;SDS011;20410;55.578;12.968;2023-03-15T04:41:13;14.90;;;4.20;;
34134;SDS011;20410;55.578;12.968;2023-03-15T04:43:40;13.67;;;3.90;;
34134;SDS011;20410;55.578;12.968;2023-03-15T04:46:07;14.17;;;3.50;;
34134;SDS011;20410;55.578;12.968;2023-03-15T04:48:33;18.27;;;4.30;;
34134;SDS011;20410;55.578;12.968;2023-03-15T04:50:59;18.13;;;4.57;;
34134;SDS011;20410;55.578;12.968;2023-03-15T04:53:24;18.57;;;3.60;;
34134;SDS011;20410;55.578;12.968;2023-03-15T04:55:50;17.07;;;4.20;;
34134;SDS011;20410;55.578;12.968;2023-03-15T04:58:16;16.67;;;5.23;;
34134;SDS011;20410;55.578;12.968;2023-03-15T05:00:42;16.67;;;4.63;;
34134;SDS011;20410;55.578;12.968;2023-03-15T05:03:08;13.63;;;4.20;;
34134;SDS011;20410;55.578;12.968;2023-03-15T05:05:33;17.47;;;4.43;;
34134;SDS011;20410;55.578;12.968;2023-03-15T05:08:00;14.70;;;4.17;;
34134;SDS011;20410;55.578;12.968;2023-03-15T05:10:25;21.97;;;4.10;;
34134;SDS011;20410;55.578;12.968;2023-03-15T05:12:53;15.17;;;4.60;;
34134;SDS011;20410;55.578;12.968;2023-03-15T05:15:20;20.23;;;4.57;;
34134;SDS011;20410;55.578;12.968;2023-03-15T05:17:46;12.93;;;3.93;;
34134;SDS011;20410;55.578;12.968;2023-03-15T05:20:12;17.70;;;4.30;;
34134;SDS011;20410;55.578;12.968;2023-03-15T05:22:39;12.43;;;4.27;;
34134;SDS011;20410;55.578;12.968;2023-03-15T05:25:06;16.13;;;3.77;;
34134;SDS011;20410;55.578;12.968;2023-03-15T05:27:33;18.47;;;5.17;;
34134;SDS011;20410;55.578;12.968;2023-03-15T05:29:59;15.33;;;4.13;;
34134;SDS011;20410;55.578;12.968;2023-03-15T05:32:28;18.70;;;4.47;;
34134;SDS011;20410;55.578;12.968;2023-03-15T05:34:58;15.13;;;3.83;;
34134;SDS011;20410;55.578;12.968;2023-03-15T05:37:29;12.10;;;4.10;;
34134;SDS011;20410;55.578;12.968;2023-03-15T05:39:56;16.87;;;4.47;;
34134;SDS011;20410;55.578;12.968;2023-03-15T05:42:22;12.60;;;3.47;;
34134;SDS011;20410;55.578;12.968;2023-03-15T05:44:51;12.20;;;3.93;;
34134;SDS011;20410;55.578;12.968;2023-03-15T05:47:17;13.10;;;4.17;;
34134;SDS011;20410;55.578;12.968;2023-03-15T05:49:46;17.37;;;4.23;;
34134;SDS011;20410;55.578;12.968;2023-03-15T05:52:12;16.70;;;4.10;;
34134;SDS011;20410;55.578;12.968;2023-03-15T05:54:38;15.67;;;3.83;;
34134;SDS011;20410;55.578;12.968;2023-03-15T05:57:04;19.63;;;4.27;;
34134;SDS011;20410;55.578;12.968;2023-03-15T05:59:30;12.93;;;3.87;;
34134;SDS011;20410;55.578;12.968;2023-03-15T06:01:55;17.87;;;4.33;;
34134;SDS011;20410;55.578;12.968;2023-03-15T06:04:21;10.17;;;3.47;;
34134;SDS011;20410;55.578;12.968;2023-03-15T06:06:47;15.57;;;4.70;;
34134;SDS011;20410;55.578;12.968;2023-03-15T06:09:13;16.70;;;3.73;;
34134;SDS011;20410;55.578;12.968;2023-03-15T06:11:39;13.27;;;4.60;;
34134;SDS011;20410;55.578;12.968;2023-03-15T06:14:07;14.10;;;4.10;;
34134;SDS011;20410;55.578;12.968;2023-03-15T06:16:33;13.80;;;4.07;;
34134;SDS011;20410;55.578;12.968;2023-03-15T06:18:58;14.83;;;4.27;;
34134;SDS011;20410;55.578;12.968;2023-03-15T06:21:24;18.10;;;4.43;;
34134;SDS011;20410;55.578;12.968;2023-03-15T06:23:50;12.80;;;3.73;;
34134;SDS011;20410;55.578;12.968;2023-03-15T06:26:15;12.47;;;3.40;;
34134;SDS011;20410;55.578;12.968;2023-03-15T06:28:43;12.77;;;3.10;;
34134;SDS011;20410;55.578;12.968;2023-03-15T06:31:10;15.63;;;4.60;;
34134;SDS011;20410;55.578;12.968;2023-03-15T06:33:37;13.23;;;3.73;;
34134;SDS011;20410;55.578;12.968;2023-03-15T06:36:02;18.43;;;4.87;;
34134;SDS011;20410;55.578;12.968;2023-03-15T06:38:28;17.80;;;4.23;;
34134;SDS011;20410;55.578;12.968;2023-03-15T06:40:55;21.77;;;4.60;;
34134;SDS011;20410;55.578;12.968;2023-03-15T06:43:29;20.67;;;4.47;;
34134;SDS011;20410;55.578;12.968;2023-03-15T06:45:55;11.43;;;3.50;;
34134;SDS011;20410;55.578;12.968;2023-03-15T06:48:23;13.23;;;4.10;;
34134;SDS011;20410;55.578;12.968;2023-03-15T06:50:49;19.13;;;4.07;;
34134;SDS011;20410;55.578;12.968;2023-03-15T06:53:15;12.57;;;3.90;;
34134;SDS011;20410;55.578;12.968;2023-03-15T06:55:41;13.30;;;4.10;;
34134;SDS011;20410;55.578;12.968;2023-03-15T06:58:07;13.33;;;4.33;;
34134;SDS011;20410;55.578;12.968;2023-03-15T07:00:33;13.80;;;4.20;;
34134;SDS011;20410;55.578;12.968;2023-03-15T07:02:59;12.70;;;3.60;;
34134;SDS011;20410;55.578;12.968;2023-03-15T07:05:24;12.83;;;3.67;;
34134;SDS011;20410;55.578;12.968;2023-03-15T07:07:50;18.23;;;3.97;;
34134;SDS011;20410;55.578;12.968;2023-03-15T07:10:16;14.07;;;4.30;;
34134;SDS011;20410;55.578;12.968;2023-03-15T07:12:41;12.13;;;3.67;;
34134;SDS011;20410;55.578;12.968;2023-03-15T07:15:07;13.30;;;3.60;;
34134;SDS011;20410;55.578;12.968;2023-03-15T07:17:33;16.03;;;4.50;;
34134;SDS011;20410;55.578;12.968;2023-03-15T07:19:59;11.10;;;3.60;;
34134;SDS011;20410;55.578;12.968;2023-03-15T07:22:25;12.37;;;4.00;;
34134;SDS011;20410;55.578;12.968;2023-03-15T07:24:51;11.63;;;3.27;;
34134;SDS011;20410;55.578;12.968;2023-03-15T07:27:16;14.00;;;4.13;;
34134;SDS011;20410;55.578;12.968;2023-03-15T07:29:42;14.27;;;4.40;;
34134;SDS011;20410;55.578;12.968;2023-03-15T07:32:08;11.33;;;3.30;;
34134;SDS011;20410;55.578;12.968;2023-03-15T07:34:33;16.10;;;3.50;;
34134;SDS011;20410;55.578;12.968;2023-03-15T07:36:59;13.70;;;3.80;;
34134;SDS011;20410;55.578;12.968;2023-03-15T07:39:25;10.70;;;3.80;;
34134;SDS011;20410;55.578;12.968;2023-03-15T07:41:53;14.07;;;4.20;;
34134;SDS011;20410;55.578;12.968;2023-03-15T07:44:19;14.67;;;3.70;;
34134;SDS011;20410;55.578;12.968;2023-03-15T07:46:45;18.10;;;4.10;;
34134;SDS011;20410;55.578;12.968;2023-03-15T07:49:11;13.43;;;3.60;;
34134;SDS011;20410;55.578;12.968;2023-03-15T07:51:36;13.17;;;3.97;;
34134;SDS011;20410;55.578;12.968;2023-03-15T07:54:02;8.53;;;3.27;;
34134;SDS011;20410;55.578;12.968;2023-03-15T07:56:27;8.17;;;3.23;;
34134;SDS011;20410;55.578;12.968;2023-03-15T07:58:53;9.73;;;4.00;;
34134;SDS011;20410;55.578;12.968;2023-03-15T08:01:19;14.40;;;3.73;;
34134;SDS011;20410;55.578;12.968;2023-03-15T08:03:45;9.87;;;3.63;;
34134;SDS011;20410;55.578;12.968;2023-03-15T08:06:11;12.73;;;3.90;;
34134;SDS011;20410;55.578;12.968;2023-03-15T08:08:37;10.97;;;2.97;;
34134;SDS011;20410;55.578;12.968;2023-03-15T08:11:03;14.97;;;4.40;;
34134;SDS011;20410;55.578;12.968;2023-03-15T08:13:29;8.60;;;3.60;;
34134;SDS011;20410;55.578;12.968;2023-03-15T08:15:55;11.03;;;3.40;;
34134;SDS011;20410;55.578;12.968;2023-03-15T08:18:20;12.07;;;3.50;;
34134;SDS011;20410;55.578;12.968;2023-03-15T08:20:46;7.53;;;3.37;;
34134;SDS011;20410;55.578;12.968;2023-03-15T08:23:12;11.20;;;2.77;;
34134;SDS011;20410;55.578;12.968;2023-03-15T08:25:40;10.23;;;3.37;;
34134;SDS011;20410;55.578;12.968;2023-03-15T08:28:07;11.30;;;3.47;;
34134;SDS011;20410;55.578;12.968;2023-03-15T08:30:33;10.37;;;3.27;;
34134;SDS011;20410;55.578;12.968;2023-03-15T08:32:59;11.73;;;3.27;;
34134;SDS011;20410;55.578;12.968;2023-03-15T08:35:25;7.83;;;3.03;;
34134;SDS011;20410;55.578;12.968;2023-03-15T08:37:50;11.17;;;3.97;;
34134;SDS011;20410;55.578;12.968;2023-03-15T08:40:17;8.67;;;3.20;;
34134;SDS011;20410;55.578;12.968;2023-03-15T08:42:50;11.00;;;3.20;;
34134;SDS011;20410;55.578;12.968;2023-03-15T08:45:17;13.27;;;3.47;;
34134;SDS011;20410;55.578;12.968;2023-03-15T08:47:43;9.13;;;3.47;;
34134;SDS011;20410;55.578;12.968;2023-03-15T08:50:10;11.30;;;3.83;;
34134;SDS011;20410;55.578;12.968;2023-03-15T08:52:37;9.97;;;3.30;;
34134;SDS011;20410;55.578;12.968;2023-03-15T08:55:04;10.70;;;2.90;;
34134;SDS011;20410;55.578;12.968;2023-03-15T08:57:30;12.20;;;3.67;;
34134;SDS011;20410;55.578;12.968;2023-03-15T08:59:57;13.13;;;3.43;;
34134;SDS011;20410;55.578;12.968;2023-03-15T09:02:24;9.93;;;2.97;;
34134;SDS011;20410;55.578;12.968;2023-03-15T09:04:49;11.63;;;3.17;;
34134;SDS011;20410;55.578;12.968;2023-03-15T09:07:15;12.87;;;3.40;;
34134;SDS011;20410;55.578;12.968;2023-03-15T09:09:41;11.80;;;3.47;;
34134;SDS011;20410;55.578;12.968;2023-03-15T09:12:15;10.73;;;3.33;;
34134;SDS011;20410;55.578;12.968;2023-03-15T09:14:41;10.30;;;2.83;;
34134;SDS011;20410;55.578;12.968;2023-03-15T09:17:07;8.43;;;3.40;;
34134;SDS011;20410;55.578;12.968;2023-03-15T09:19:33;6.60;;;2.87;;
34134;SDS011;20410;55.578;12.968;2023-03-15T09:21:59;9.37;;;3.20;;
34134;SDS011;20410;55.578;12.968;2023-03-15T09:24:24;14.07;;;3.47;;
34134;SDS011;20410;55.578;12.968;2023-03-15T09:26:50;8.00;;;2.60;;
34134;SDS011;20410;55.578;12.968;2023-03-15T09:29:15;6.90;;;2.60;;
34134;SDS011;20410;55.578;12.968;2023-03-15T09:31:41;9.90;;;3.30;;
34134;SDS011;20410;55.578;12.968;2023-03-15T09:34:07;10.97;;;2.97;;
34134;SDS011;20410;55.578;12.968;2023-03-15T09:36:32;8.27;;;2.73;;
34134;SDS011;20410;55.578;12.968;2023-03-15T09:38:58;7.67;;;3.00;;
34134;SDS011;20410;55.578;12.968;2023-03-15T09:44:27;10.20;;;3.43;;
34134;SDS011;20410;55.578;12.968;2023-03-15T09:52:21;8.57;;;2.63;;
34134;SDS011;20410;55.578;12.968;2023-03-15T09:54:53;7.40;;;2.97;;
34134;SDS011;20410;55.578;12.968;2023-03-15T09:57:40;8.97;;;2.80;;
34134;SDS011;20410;55.578;12.968;2023-03-15T10:00:10;7.83;;;2.90;;
34134;SDS011;20410;55.578;12.968;2023-03-15T10:02:41;8.93;;;3.07;;
34134;SDS011;20410;55.578;12.968;2023-03-15T10:05:15;7.43;;;2.50;;
34134;SDS011;20410;55.578;12.968;2023-03-15T10:07:46;6.43;;;2.47;;
34134;SDS011;20410;55.578;12.968;2023-03-15T10:10:16;8.43;;;2.53;;
34134;SDS011;20410;55.578;12.968;2023-03-15T10:12:45;8.70;;;2.67;;
34134;SDS011;20410;55.578;12.968;2023-03-15T10:15:29;7.37;;;2.50;;
34134;SDS011;20410;55.578;12.968;2023-03-15T10:18:20;6.60;;;2.63;;
34134;SDS011;20410;55.578;12.968;2023-03-15T10:21:08;6.67;;;2.77;;
34134;SDS011;20410;55.578;12.968;2023-03-15T10:26:07;7.60;;;2.50;;
34134;SDS011;20410;55.578;12.968;2023-03-15T10:28:38;8.03;;;2.93;;
34134;SDS011;20410;55.578;12.968;2023-03-15T10:31:10;6.30;;;2.40;;
34134;SDS011;20410;55.578;12.968;2023-03-15T10:33:38;5.97;;;2.43;;
34134;SDS011;20410;55.578;12.968;2023-03-15T10:36:13;6.53;;;2.83;;
34134;SDS011;20410;55.578;12.968;2023-03-15T10:38:41;7.90;;;2.37;;
34134;SDS011;20410;55.578;12.968;2023-03-15T10:41:08;8.20;;;2.57;;
34134;SDS011;20410;55.578;12.968;2023-03-15T10:43:36;6.63;;;2.93;;
34134;SDS011;20410;55.578;12.968;2023-03-15T10:48:37;7.83;;;2.80;;
34134;SDS011;20410;55.578;12.968;2023-03-15T10:51:27;9.33;;;2.60;;
34134;SDS011;20410;55.578;12.968;2023-03-15T10:53:59;8.20;;;2.73;;
34134;SDS011;20410;55.578;12.968;2023-03-15T10:56:30;8.83;;;2.80;;
34134;SDS011;20410;55.578;12.968;2023-03-15T10:58:59;9.20;;;2.60;;
34134;SDS011;20410;55.578;12.968;2023-03-15T11:06:38;5.67;;;2.80;;
34134;SDS011;20410;55.578;12.968;2023-03-15T11:09:20;8.70;;;2.47;;
34134;SDS011;20410;55.578;12.968;2023-03-15T11:14:23;5.93;;;2.73;;
34134;SDS011;20410;55.578;12.968;2023-03-15T11:16:54;6.33;;;2.30;;
34134;SDS011;20410;55.578;12.968;2023-03-15T11:19:25;10.70;;;2.80;;
34134;SDS011;20410;55.578;12.968;2023-03-15T11:21:52;9.93;;;2.70;;
34134;SDS011;20410;55.578;12.968;2023-03-15T11:24:24;6.90;;;2.73;;
34134;SDS011;20410;55.578;12.968;2023-03-15T11:26:53;9.47;;;2.50;;
34134;SDS011;20410;55.578;12.968;2023-03-15T11:29:24;7.57;;;2.40;;
34134;SDS011;20410;55.578;12.968;2023-03-15T11:31:54;6.43;;;2.57;;
34134;SDS011;20410;55.578;12.968;2023-03-15T11:34:36;6.37;;;2.30;;
34134;SDS011;20410;55.578;12.968;2023-03-15T11:37:15;7.30;;;2.57;;
34134;SDS011;20410;55.578;12.968;2023-03-15T11:40:02;6.60;;;2.63;;
34134;SDS011;20410;55.578;12.968;2023-03-15T11:42:53;9.43;;;2.43;;
34134;SDS011;20410;55.578;12.968;2023-03-15T11:45:44;7.37;;;2.53;;
34134;SDS011;20410;55.578;12.968;2023-03-15T11:51:13;5.13;;;2.33;;
34134;SDS011;20410;55.578;12.968;2023-03-15T11:53:44;5.33;;;2.30;;
34134;SDS011;20410;55.578;12.968;2023-03-15T11:59:11;9.10;;;2.07;;
34134;SDS011;20410;55.578;12.968;2023-03-15T12:01:59;5.73;;;2.30;;
34134;SDS011;20410;55.578;12.968;2023-03-15T12:06:59;4.80;;;1.90;;
34134;SDS011;20410;55.578;12.968;2023-03-15T12:12:02;7.30;;;2.00;;
34134;SDS011;20410;55.578;12.968;2023-03-15T12:14:31;8.87;;;2.50;;
34134;SDS011;20410;55.578;12.968;2023-03-15T12:17:34;6.30;;;2.27;;
34134;SDS011;20410;55.578;12.968;2023-03-15T12:20:00;4.47;;;1.93;;
34134;SDS011;20410;55.578;12.968;2023-03-15T12:22:33;5.17;;;2.20;;
34134;SDS011;20410;55.578;12.968;2023-03-15T12:25:47;7.10;;;2.33;;
34134;SDS011;20410;55.578;12.968;2023-03-15T12:28:27;4.60;;;2.13;;
34134;SDS011;20410;55.578;12.968;2023-03-15T12:30:59;6.40;;;1.90;;
34134;SDS011;20410;55.578;12.968;2023-03-15T12:33:26;6.80;;;2.40;;
34134;SDS011;20410;55.578;12.968;2023-03-15T12:35:58;5.17;;;2.10;;
34134;SDS011;20410;55.578;12.968;2023-03-15T12:38:36;8.70;;;2.27;;
34134;SDS011;20410;55.578;12.968;2023-03-15T12:41:08;5.87;;;2.10;;
34134;SDS011;20410;55.578;12.968;2023-03-15T12:51:43;6.90;;;1.80;;
34134;SDS011;20410;55.578;12.968;2023-03-15T12:54:18;5.33;;;1.83;;
34134;SDS011;20410;55.578;12.968;2023-03-15T12:56:47;5.27;;;2.10;;
34134;SDS011;20410;55.578;12.968;2023-03-15T12:59:24;3.40;;;1.90;;
34134;SDS011;20410;55.578;12.968;2023-03-15T13:01:57;6.20;;;2.37;;
34134;SDS011;20410;55.578;12.968;2023-03-15T13:04:25;5.70;;;2.10;;
34134;SDS011;20410;55.578;12.968;2023-03-15T13:06:54;8.93;;;2.40;;
34134;SDS011;20410;55.578;12.968;2023-03-15T13:12:00;6.47;;;1.90;;
34134;SDS011;20410;55.578;12.968;2023-03-15T13:33:05;6.43;;;2.40;;
34134;SDS011;20410;55.578;12.968;2023-03-15T13:35:41;4.00;;;1.83;;
34134;SDS011;20410;55.578;12.968;2023-03-15T13:40:56;8.07;;;2.33;;
34134;SDS011;20410;55.578;12.968;2023-03-15T13:43:24;6.10;;;2.17;;
34134;SDS011;20410;55.578;12.968;2023-03-15T13:45:55;8.90;;;2.07;;
34134;SDS011;20410;55.578;12.968;2023-03-15T13:48:21;11.63;;;3.03;;
34134;SDS011;20410;55.578;12.968;2023-03-15T13:50:47;9.03;;;2.53;;
34134;SDS011;20410;55.578;12.968;2023-03-15T13:53:17;5.20;;;2.20;;
34134;SDS011;20410;55.578;12.968;2023-03-15T13:55:48;8.20;;;2.33;;
34134;SDS011;20410;55.578;12.968;2023-03-15T13:58:16;6.83;;;2.40;;
34134;SDS011;20410;55.578;12.968;2023-03-15T14:00:43;4.57;;;2.33;;
34134;SDS011;20410;55.578;12.968;2023-03-15T14:03:13;7.10;;;2.27;;
34134;SDS011;20410;55.578;12.968;2023-03-15T14:05:47;5.93;;;2.40;;
34134;SDS011;20410;55.578;12.968;2023-03-15T14:10:43;5.07;;;2.50;;
34134;SDS011;20410;55.578;12.968;2023-03-15T14:13:26;7.83;;;2.33;;
34134;SDS011;20410;55.578;12.968;2023-03-15T14:15:58;5.83;;;2.30;;
34134;SDS011;20410;55.578;12.968;2023-03-15T14:18:29;6.27;;;2.27;;
34134;SDS011;20410;55.578;12.968;2023-03-15T14:23:44;5.53;;;2.10;;
34134;SDS011;20410;55.578;12.968;2023-03-15T14:26:13;8.60;;;3.77;;
34134;SDS011;20410;55.578;12.968;2023-03-15T14:28:50;5.80;;;2.10;;
34134;SDS011;20410;55.578;12.968;2023-03-15T14:31:27;4.93;;;2.40;;
34134;SDS011;20410;55.578;12.968;2023-03-15T14:34:14;6.22;;;2.33;;
34134;SDS011;20410;55.578;12.968;2023-03-15T14:36:58;6.27;;;2.27;;
34134;SDS011;20410;55.578;12.968;2023-03-15T14:42:05;8.00;;;2.33;;
34134;SDS011;20410;55.578;12.968;2023-03-15T14:44:34;4.60;;;2.47;;
34134;SDS011;20410;55.578;12.968;2023-03-15T14:46:59;5.77;;;2.43;;
34134;SDS011;20410;55.578;12.968;2023-03-15T14:49:26;5.53;;;2.50;;
34134;SDS011;20410;55.578;12.968;2023-03-15T14:51:54;6.30;;;1.97;;
34134;SDS011;20410;55.578;12.968;2023-03-15T14:54:25;7.37;;;2.47;;
34134;SDS011;20410;55.578;12.968;2023-03-15T14:56:53;5.53;;;1.87;;
34134;SDS011;20410;55.578;12.968;2023-03-15T14:59:18;8.77;;;2.60;;
34134;SDS011;20410;55.578;12.968;2023-03-15T15:01:54;5.20;;;2.30;;
34134;SDS011;20410;55.578;12.968;2023-03-15T15:04:22;5.93;;;2.10;;
34134;SDS011;20410;55.578;12.968;2023-03-15T15:06:51;10.33;;;2.43;;
34134;SDS011;20410;55.578;12.968;2023-03-15T15:09:22;8.47;;;2.53;;
34134;SDS011;20410;55.578;12.968;2023-03-15T15:11:50;4.50;;;2.30;;
34134;SDS011;20410;55.578;12.968;2023-03-15T15:14:17;5.20;;;2.13;;
34134;SDS011;20410;55.578;12.968;2023-03-15T15:16:43;5.50;;;2.00;;
34134;SDS011;20410;55.578;12.968;2023-03-15T15:19:10;5.90;;;2.60;;
34134;SDS011;20410;55.578;12.968;2023-03-15T15:21:36;5.40;;;2.27;;
34134;SDS011;20410;55.578;12.968;2023-03-15T15:24:02;6.77;;;1.90;;
34134;SDS011;20410;55.578;12.968;2023-03-15T15:26:31;6.33;;;2.50;;
34134;SDS011;20410;55.578;12.968;2023-03-15T15:28:57;4.80;;;2.30;;
34134;SDS011;20410;55.578;12.968;2023-03-15T15:31:25;6.10;;;2.00;;
34134;SDS011;20410;55.578;12.968;2023-03-15T15:33:51;5.77;;;2.00;;
34134;SDS011;20410;55.578;12.968;2023-03-15T15:38:51;4.63;;;2.40;;
34134;SDS011;20410;55.578;12.968;2023-03-15T15:41:19;4.20;;;1.90;;
34134;SDS011;20410;55.578;12.968;2023-03-15T15:43:47;6.13;;;1.90;;
34134;SDS011;20410;55.578;12.968;2023-03-15T15:46:13;6.93;;;2.47;;
34134;SDS011;20410;55.578;12.968;2023-03-15T15:48:38;12.63;;;2.30;;
34134;SDS011;20410;55.578;12.968;2023-03-15T15:51:16;4.03;;;1.70;;
34134;SDS011;20410;55.578;12.968;2023-03-15T15:53:45;5.10;;;2.40;;
34134;SDS011;20410;55.578;12.968;2023-03-15T15:56:11;4.23;;;2.20;;
34134;SDS011;20410;55.578;12.968;2023-03-15T15:58:39;4.63;;;1.90;;